sensor_id;sensor_type;location;lat;lon;timestamp;temperature;humidity
3644;DHT22;1838;50.742;7.158;2023-01-19T00:02:18;1.60;99.90
3644;DHT22;1838;50.742;7.158;2023-01-19T00:04:44;1.60;99.90
3644;DHT22;1838;50.742;7.158;2023-01-19T00:07:09;1.60;99.90
3644;DHT22;1838;50.742;7.158;2023-01-19T00:09:35;1.60;99.90
3644;DHT22;1838;50.742;7.158;2023-01-19T00:12:03;1.60;99.90
3644;DHT22;1838;50.742;7.158;2023-01-19T00:14:29;1.60;99.90
3644;DHT22;1838;50.742;7.158;2023-01-19T00:16:55;1.60;99.90
3644;DHT22;1838;50.742;7.158;2023-01-19T00:19:20;1.60;99.90
3644;DHT22;1838;50.742;7.158;2023-01-19T00:21:46;1.60;99.90
3644;DHT22;1838;50.742;7.158;2023-01-19T00:24:11;1.60;99.90
3644;DHT22;1838;50.742;7.158;2023-01-19T00:26:38;1.50;99.90
3644;DHT22;1838;50.742;7.158;2023-01-19T00:29:05;1.50;99.90
3644;DHT22;1838;50.742;7.158;2023-01-19T00:31:32;1.50;99.90
3644;DHT22;1838;50.742;7.158;2023-01-19T00:33:58;1.50;99.90
3644;DHT22;1838;50.742;7.158;2023-01-19T00:36:24;1.50;99.90
3644;DHT22;1838;50.742;7.158;2023-01-19T00:38:49;1.40;99.90
3644;DHT22;1838;50.742;7.158;2023-01-19T00:41:16;1.40;99.90
3644;DHT22;1838;50.742;7.158;2023-01-19T00:43:41;1.40;99.90
3644;DHT22;1838;50.742;7.158;2023-01-19T00:46:07;1.40;99.90
3644;DHT22;1838;50.742;7.158;2023-01-19T00:48:33;1.40;99.90
3644;DHT22;1838;50.742;7.158;2023-01-19T00:50:58;1.40;99.90
3644;DHT22;1838;50.742;7.158;2023-01-19T00:53:24;1.40;99.90
3644;DHT22;1838;50.742;7.158;2023-01-19T00:55:50;1.40;99.90
3644;DHT22;1838;50.742;7.158;2023-01-19T00:58:15;1.40;99.90
3644;DHT22;1838;50.742;7.158;2023-01-19T01:00:41;1.40;99.90
3644;DHT22;1838;50.742;7.158;2023-01-19T01:03:06;1.40;99.90
3644;DHT22;1838;50.742;7.158;2023-01-19T01:05:32;1.50;99.90
3644;DHT22;1838;50.742;7.158;2023-01-19T01:07:58;1.50;99.90
3644;DHT22;1838;50.742;7.158;2023-01-19T01:10:26;1.50;99.90
3644;DHT22;1838;50.742;7.158;2023-01-19T01:12:52;1.40;99.90
3644;DHT22;1838;50.742;7.158;2023-01-19T01:15:18;1.40;99.90
3644;DHT22;1838;50.742;7.158;2023-01-19T01:17:44;1.40;99.90
3644;DHT22;1838;50.742;7.158;2023-01-19T01:20:17;1.40;99.90
3644;DHT22;1838;50.742;7.158;2023-01-19T01:22:46;1.40;99.90
3644;DHT22;1838;50.742;7.158;2023-01-19T01:25:13;1.40;99.90
3644;DHT22;1838;50.742;7.158;2023-01-19T01:27:40;1.40;99.90
3644;DHT22;1838;50.742;7.158;2023-01-19T01:30:06;1.40;99.90
3644;DHT22;1838;50.742;7.158;2023-01-19T01:32:32;1.40;99.90
3644;DHT22;1838;50.742;7.158;2023-01-19T01:34:58;1.40;99.90
3644;DHT22;1838;50.742;7.158;2023-01-19T01:37:23;1.40;99.90
3644;DHT22;1838;50.742;7.158;2023-01-19T01:39:49;1.40;99.90
3644;DHT22;1838;50.742;7.158;2023-01-19T01:42:17;1.40;99.90
3644;DHT22;1838;50.742;7.158;2023-01-19T01:47:42;1.50;99.90
3644;DHT22;1838;50.742;7.158;2023-01-19T01:50:23;1.50;99.90
3644;DHT22;1838;50.742;7.158;2023-01-19T01:53:00;1.50;99.90
3644;DHT22;1838;50.742;7.158;2023-01-19T01:55:27;1.50;99.90
3644;DHT22;1838;50.742;7.158;2023-01-19T01:57:56;1.50;99.90
3644;DHT22;1838;50.742;7.158;2023-01-19T02:00:23;1.50;99.90
3644;DHT22;1838;50.742;7.158;2023-01-19T02:02:49;1.50;99.90
3644;DHT22;1838;50.742;7.158;2023-01-19T02:05:31;1.40;99.90
3644;DHT22;1838;50.742;7.158;2023-01-19T02:08:12;1.40;99.90
3644;DHT22;1838;50.742;7.158;2023-01-19T02:10:57;1.40;99.90
3644;DHT22;1838;50.742;7.158;2023-01-19T02:13:43;1.30;99.90
3644;DHT22;1838;50.742;7.158;2023-01-19T02:16:11;1.40;99.90
3644;DHT22;1838;50.742;7.158;2023-01-19T02:18:38;1.40;99.90
3644;DHT22;1838;50.742;7.158;2023-01-19T02:21:22;1.40;99.90
3644;DHT22;1838;50.742;7.158;2023-01-19T02:23:54;1.40;99.90
3644;DHT22;1838;50.742;7.158;2023-01-19T02:26:32;1.40;99.90
3644;DHT22;1838;50.742;7.158;2023-01-19T02:29:02;1.40;99.90
3644;DHT22;1838;50.742;7.158;2023-01-19T02:31:30;1.40;99.90
3644;DHT22;1838;50.742;7.158;2023-01-19T02:33:56;1.40;99.90
3644;DHT22;1838;50.742;7.158;2023-01-19T02:36:26;1.40;99.90
3644;DHT22;1838;50.742;7.158;2023-01-19T02:38:55;1.40;99.90
3644;DHT22;1838;50.742;7.158;2023-01-19T02:41:26;1.40;99.90
3644;DHT22;1838;50.742;7.158;2023-01-19T02:43:53;1.40;99.90
3644;DHT22;1838;50.742;7.158;2023-01-19T02:46:20;1.40;99.90
3644;DHT22;1838;50.742;7.158;2023-01-19T02:48:45;1.40;99.90
3644;DHT22;1838;50.742;7.158;2023-01-19T02:51:14;1.40;99.90
3644;DHT22;1838;50.742;7.158;2023-01-19T03:06:00;1.40;99.90
3644;DHT22;1838;50.742;7.158;2023-01-19T03:08:11;1.40;99.90
3644;DHT22;1838;50.742;7.158;2023-01-19T03:10:56;1.40;99.90
3644;DHT22;1838;50.742;7.158;2023-01-19T03:16:14;1.40;99.90
3644;DHT22;1838;50.742;7.158;2023-01-19T03:18:44;1.30;99.90
3644;DHT22;1838;50.742;7.158;2023-01-19T03:21:12;1.30;99.90
3644;DHT22;1838;50.742;7.158;2023-01-19T03:23:40;1.20;99.90
3644;DHT22;1838;50.742;7.158;2023-01-19T03:26:10;1.30;99.90
3644;DHT22;1838;50.742;7.158;2023-01-19T03:28:39;1.30;99.90
3644;DHT22;1838;50.742;7.158;2023-01-19T03:31:15;1.20;99.90
3644;DHT22;1838;50.742;7.158;2023-01-19T03:33:44;1.20;99.90
3644;DHT22;1838;50.742;7.158;2023-01-19T03:36:34;1.20;99.90
3644;DHT22;1838;50.742;7.158;2023-01-19T03:39:03;1.20;99.90
3644;DHT22;1838;50.742;7.158;2023-01-19T03:41:30;1.20;99.90
3644;DHT22;1838;50.742;7.158;2023-01-19T03:43:57;1.20;99.90
3644;DHT22;1838;50.742;7.158;2023-01-19T03:46:23;1.30;99.90
3644;DHT22;1838;50.742;7.158;2023-01-19T03:48:50;1.20;99.90
3644;DHT22;1838;50.742;7.158;2023-01-19T03:51:16;1.30;99.90
3644;DHT22;1838;50.742;7.158;2023-01-19T03:53:42;1.30;99.90
3644;DHT22;1838;50.742;7.158;2023-01-19T03:56:17;1.30;99.90
3644;DHT22;1838;50.742;7.158;2023-01-19T03:58:43;1.30;99.90
3644;DHT22;1838;50.742;7.158;2023-01-19T04:01:08;1.30;99.90
3644;DHT22;1838;50.742;7.158;2023-01-19T04:03:34;1.20;99.90
3644;DHT22;1838;50.742;7.158;2023-01-19T04:05:59;1.30;99.90
3644;DHT22;1838;50.742;7.158;2023-01-19T04:08:25;1.30;99.90
3644;DHT22;1838;50.742;7.158;2023-01-19T04:10:50;1.30;99.90
3644;DHT22;1838;50.742;7.158;2023-01-19T04:13:16;1.30;99.90
3644;DHT22;1838;50.742;7.158;2023-01-19T04:15:41;1.30;99.90
3644;DHT22;1838;50.742;7.158;2023-01-19T04:18:07;1.30;99.90
3644;DHT22;1838;50.742;7.158;2023-01-19T04:20:33;1.40;99.90
3644;DHT22;1838;50.742;7.158;2023-01-19T04:22:59;1.40;99.90
3644;DHT22;1838;50.742;7.158;2023-01-19T04:25:26;1.40;99.90
3644;DHT22;1838;50.742;7.158;2023-01-19T04:27:52;1.40;99.90
3644;DHT22;1838;50.742;7.158;2023-01-19T04:30:18;1.40;99.90
3644;DHT22;1838;50.742;7.158;2023-01-19T04:32:44;1.50;99.90
3644;DHT22;1838;50.742;7.158;2023-01-19T04:35:09;1.50;99.90
3644;DHT22;1838;50.742;7.158;2023-01-19T04:37:35;1.50;99.90
3644;DHT22;1838;50.742;7.158;2023-01-19T04:40:00;1.50;99.90
3644;DHT22;1838;50.742;7.158;2023-01-19T04:42:26;1.60;99.90
3644;DHT22;1838;50.742;7.158;2023-01-19T04:44:52;1.60;99.90
3644;DHT22;1838;50.742;7.158;2023-01-19T04:47:18;1.60;99.90
3644;DHT22;1838;50.742;7.158;2023-01-19T04:49:44;1.70;99.90
3644;DHT22;1838;50.742;7.158;2023-01-19T04:52:09;1.70;99.90
3644;DHT22;1838;50.742;7.158;2023-01-19T04:54:35;1.70;99.90
3644;DHT22;1838;50.742;7.158;2023-01-19T04:57:01;1.70;99.90
3644;DHT22;1838;50.742;7.158;2023-01-19T04:59:26;1.70;99.90
3644;DHT22;1838;50.742;7.158;2023-01-19T05:01:52;1.70;99.90
3644;DHT22;1838;50.742;7.158;2023-01-19T05:04:17;1.70;99.90
3644;DHT22;1838;50.742;7.158;2023-01-19T05:06:43;1.70;99.90
3644;DHT22;1838;50.742;7.158;2023-01-19T05:09:08;1.80;99.90
3644;DHT22;1838;50.742;7.158;2023-01-19T05:11:37;1.70;99.90
3644;DHT22;1838;50.742;7.158;2023-01-19T05:14:03;1.70;99.90
3644;DHT22;1838;50.742;7.158;2023-01-19T05:16:28;1.70;99.90
3644;DHT22;1838;50.742;7.158;2023-01-19T05:18:54;1.80;99.90
3644;DHT22;1838;50.742;7.158;2023-01-19T05:21:19;1.80;99.90
3644;DHT22;1838;50.742;7.158;2023-01-19T05:23:45;1.80;99.90
3644;DHT22;1838;50.742;7.158;2023-01-19T05:26:10;1.80;99.90
3644;DHT22;1838;50.742;7.158;2023-01-19T05:28:36;1.80;99.90
3644;DHT22;1838;50.742;7.158;2023-01-19T05:31:02;1.80;99.90
3644;DHT22;1838;50.742;7.158;2023-01-19T05:33:27;1.90;99.90
3644;DHT22;1838;50.742;7.158;2023-01-19T05:35:54;1.90;99.90
3644;DHT22;1838;50.742;7.158;2023-01-19T05:38:20;1.90;99.90
3644;DHT22;1838;50.742;7.158;2023-01-19T05:40:46;1.90;99.90
3644;DHT22;1838;50.742;7.158;2023-01-19T05:43:13;2.00;99.90
3644;DHT22;1838;50.742;7.158;2023-01-19T05:45:38;2.00;99.90
3644;DHT22;1838;50.742;7.158;2023-01-19T05:48:06;2.00;99.90
3644;DHT22;1838;50.742;7.158;2023-01-19T05:50:32;2.10;99.90
3644;DHT22;1838;50.742;7.158;2023-01-19T05:52:58;2.10;99.90
3644;DHT22;1838;50.742;7.158;2023-01-19T05:55:24;2.10;99.90
3644;DHT22;1838;50.742;7.158;2023-01-19T05:57:50;2.10;99.90
3644;DHT22;1838;50.742;7.158;2023-01-19T06:00:15;2.10;99.90
3644;DHT22;1838;50.742;7.158;2023-01-19T06:02:41;2.20;99.90
3644;DHT22;1838;50.742;7.158;2023-01-19T06:05:08;2.20;99.90
3644;DHT22;1838;50.742;7.158;2023-01-19T06:07:33;2.20;99.90
3644;DHT22;1838;50.742;7.158;2023-01-19T06:09:59;2.30;99.90
3644;DHT22;1838;50.742;7.158;2023-01-19T06:12:24;2.30;99.90
3644;DHT22;1838;50.742;7.158;2023-01-19T06:14:50;2.30;99.90
3644;DHT22;1838;50.742;7.158;2023-01-19T06:17:15;2.30;99.90
3644;DHT22;1838;50.742;7.158;2023-01-19T06:19:41;2.30;99.90
3644;DHT22;1838;50.742;7.158;2023-01-19T06:22:07;2.30;99.90
3644;DHT22;1838;50.742;7.158;2023-01-19T06:24:33;2.30;99.90
3644;DHT22;1838;50.742;7.158;2023-01-19T06:26:58;2.30;99.90
3644;DHT22;1838;50.742;7.158;2023-01-19T06:29:25;2.30;99.90
3644;DHT22;1838;50.742;7.158;2023-01-19T06:31:51;2.40;99.90
3644;DHT22;1838;50.742;7.158;2023-01-19T06:34:16;2.30;99.90
3644;DHT22;1838;50.742;7.158;2023-01-19T06:36:43;2.30;99.90
3644;DHT22;1838;50.742;7.158;2023-01-19T06:39:09;2.40;99.90
3644;DHT22;1838;50.742;7.158;2023-01-19T06:41:35;2.30;99.90
3644;DHT22;1838;50.742;7.158;2023-01-19T06:44:01;2.20;99.90
3644;DHT22;1838;50.742;7.158;2023-01-19T06:46:27;2.20;99.90
3644;DHT22;1838;50.742;7.158;2023-01-19T06:48:53;2.30;99.90
3644;DHT22;1838;50.742;7.158;2023-01-19T06:51:19;2.20;99.90
3644;DHT22;1838;50.742;7.158;2023-01-19T06:53:45;2.20;99.90
3644;DHT22;1838;50.742;7.158;2023-01-19T06:56:11;2.30;99.90
3644;DHT22;1838;50.742;7.158;2023-01-19T06:58:36;2.20;99.90
3644;DHT22;1838;50.742;7.158;2023-01-19T07:01:06;2.10;99.90
3644;DHT22;1838;50.742;7.158;2023-01-19T07:03:32;2.10;99.90
3644;DHT22;1838;50.742;7.158;2023-01-19T07:05:58;2.10;99.90
3644;DHT22;1838;50.742;7.158;2023-01-19T07:08:29;2.10;99.90
3644;DHT22;1838;50.742;7.158;2023-01-19T07:11:02;2.10;99.90
3644;DHT22;1838;50.742;7.158;2023-01-19T07:13:33;2.10;99.90
3644;DHT22;1838;50.742;7.158;2023-01-19T07:16:11;2.20;99.90
3644;DHT22;1838;50.742;7.158;2023-01-19T07:18:37;2.20;99.90
3644;DHT22;1838;50.742;7.158;2023-01-19T07:21:03;2.10;99.90
3644;DHT22;1838;50.742;7.158;2023-01-19T07:23:29;2.10;99.90
3644;DHT22;1838;50.742;7.158;2023-01-19T07:25:58;2.10;99.90
3644;DHT22;1838;50.742;7.158;2023-01-19T07:28:26;2.20;99.90
3644;DHT22;1838;50.742;7.158;2023-01-19T07:30:53;2.10;99.90
3644;DHT22;1838;50.742;7.158;2023-01-19T07:33:18;2.20;99.90
3644;DHT22;1838;50.742;7.158;2023-01-19T07:35:47;2.10;99.90
3644;DHT22;1838;50.742;7.158;2023-01-19T07:38:13;2.10;99.90
3644;DHT22;1838;50.742;7.158;2023-01-19T07:40:39;2.10;99.90
3644;DHT22;1838;50.742;7.158;2023-01-19T07:43:04;2.10;99.90
3644;DHT22;1838;50.742;7.158;2023-01-19T07:45:30;2.10;99.90
3644;DHT22;1838;50.742;7.158;2023-01-19T07:47:55;2.00;99.90
3644;DHT22;1838;50.742;7.158;2023-01-19T07:50:21;2.00;99.90
3644;DHT22;1838;50.742;7.158;2023-01-19T07:52:50;2.10;99.90
3644;DHT22;1838;50.742;7.158;2023-01-19T07:55:17;2.10;99.90
3644;DHT22;1838;50.742;7.158;2023-01-19T07:57:43;2.20;99.90
3644;DHT22;1838;50.742;7.158;2023-01-19T08:00:09;2.10;99.90
3644;DHT22;1838;50.742;7.158;2023-01-19T08:02:34;2.10;99.90
3644;DHT22;1838;50.742;7.158;2023-01-19T08:05:01;2.10;99.90
3644;DHT22;1838;50.742;7.158;2023-01-19T08:07:27;2.10;99.90
3644;DHT22;1838;50.742;7.158;2023-01-19T08:09:52;2.20;99.90
3644;DHT22;1838;50.742;7.158;2023-01-19T08:12:18;2.20;99.90
3644;DHT22;1838;50.742;7.158;2023-01-19T08:14:43;2.20;99.90
3644;DHT22;1838;50.742;7.158;2023-01-19T08:17:11;2.30;99.90
3644;DHT22;1838;50.742;7.158;2023-01-19T08:19:37;2.30;99.90
3644;DHT22;1838;50.742;7.158;2023-01-19T08:22:03;2.20;99.90
3644;DHT22;1838;50.742;7.158;2023-01-19T08:24:30;2.20;99.90
3644;DHT22;1838;50.742;7.158;2023-01-19T08:27:00;2.20;99.90
3644;DHT22;1838;50.742;7.158;2023-01-19T08:29:26;2.20;99.90
3644;DHT22;1838;50.742;7.158;2023-01-19T08:31:52;2.20;99.90
3644;DHT22;1838;50.742;7.158;2023-01-19T08:34:20;2.20;99.90
3644;DHT22;1838;50.742;7.158;2023-01-19T08:36:45;2.20;99.90
3644;DHT22;1838;50.742;7.158;2023-01-19T08:39:11;2.20;99.90
3644;DHT22;1838;50.742;7.158;2023-01-19T08:41:37;2.20;99.90
3644;DHT22;1838;50.742;7.158;2023-01-19T08:44:03;2.30;99.90
3644;DHT22;1838;50.742;7.158;2023-01-19T08:46:28;2.30;99.90
3644;DHT22;1838;50.742;7.158;2023-01-19T08:48:54;2.20;99.90
3644;DHT22;1838;50.742;7.158;2023-01-19T08:51:20;2.30;99.90
3644;DHT22;1838;50.742;7.158;2023-01-19T08:53:45;2.30;99.90
3644;DHT22;1838;50.742;7.158;2023-01-19T08:56:11;2.30;99.90
3644;DHT22;1838;50.742;7.158;2023-01-19T08:58:42;2.30;99.90
3644;DHT22;1838;50.742;7.158;2023-01-19T09:01:12;2.30;99.90
3644;DHT22;1838;50.742;7.158;2023-01-19T09:03:39;2.30;99.90
3644;DHT22;1838;50.742;7.158;2023-01-19T09:06:09;2.30;99.90
3644;DHT22;1838;50.742;7.158;2023-01-19T09:08:34;2.30;99.90
3644;DHT22;1838;50.742;7.158;2023-01-19T09:11:00;2.40;99.90
3644;DHT22;1838;50.742;7.158;2023-01-19T09:13:26;2.30;99.90
3644;DHT22;1838;50.742;7.158;2023-01-19T09:15:52;2.40;99.90
3644;DHT22;1838;50.742;7.158;2023-01-19T09:18:19;2.40;99.90
3644;DHT22;1838;50.742;7.158;2023-01-19T09:20:47;2.40;99.90
3644;DHT22;1838;50.742;7.158;2023-01-19T09:23:15;2.40;99.90
3644;DHT22;1838;50.742;7.158;2023-01-19T09:25:42;2.40;99.90
3644;DHT22;1838;50.742;7.158;2023-01-19T09:28:10;2.40;99.90
3644;DHT22;1838;50.742;7.158;2023-01-19T09:30:36;2.50;99.90
3644;DHT22;1838;50.742;7.158;2023-01-19T09:33:08;2.50;99.90
3644;DHT22;1838;50.742;7.158;2023-01-19T09:35:36;2.40;99.90
3644;DHT22;1838;50.742;7.158;2023-01-19T09:38:01;2.50;99.90
3644;DHT22;1838;50.742;7.158;2023-01-19T09:40:27;2.50;99.90
3644;DHT22;1838;50.742;7.158;2023-01-19T09:43:15;2.50;99.90
3644;DHT22;1838;50.742;7.158;2023-01-19T09:45:52;2.50;99.90
3644;DHT22;1838;50.742;7.158;2023-01-19T09:48:32;2.60;99.90
3644;DHT22;1838;50.742;7.158;2023-01-19T09:51:04;2.60;99.90
3644;DHT22;1838;50.742;7.158;2023-01-19T09:53:51;2.60;99.90
3644;DHT22;1838;50.742;7.158;2023-01-19T09:56:21;2.70;99.90
3644;DHT22;1838;50.742;7.158;2023-01-19T09:58:48;2.70;99.90
3644;DHT22;1838;50.742;7.158;2023-01-19T10:01:31;2.70;99.90
3644;DHT22;1838;50.742;7.158;2023-01-19T10:06:48;2.90;99.90
3644;DHT22;1838;50.742;7.158;2023-01-19T10:09:18;3.00;99.90
3644;DHT22;1838;50.742;7.158;2023-01-19T10:12:00;2.90;99.90
3644;DHT22;1838;50.742;7.158;2023-01-19T10:14:39;2.90;99.90
3644;DHT22;1838;50.742;7.158;2023-01-19T10:17:25;3.00;99.90
3644;DHT22;1838;50.742;7.158;2023-01-19T10:19:56;3.00;99.90
3644;DHT22;1838;50.742;7.158;2023-01-19T10:22:24;3.00;99.90
3644;DHT22;1838;50.742;7.158;2023-01-19T10:24:59;3.10;99.90
3644;DHT22;1838;50.742;7.158;2023-01-19T10:27:29;3.10;99.90
3644;DHT22;1838;50.742;7.158;2023-01-19T10:29:56;3.20;99.90
3644;DHT22;1838;50.742;7.158;2023-01-19T10:32:33;3.20;99.90
3644;DHT22;1838;50.742;7.158;2023-01-19T10:35:03;3.30;99.90
3644;DHT22;1838;50.742;7.158;2023-01-19T10:37:38;3.30;99.90
3644;DHT22;1838;50.742;7.158;2023-01-19T10:42:33;3.40;99.90
3644;DHT22;1838;50.742;7.158;2023-01-19T10:44:59;3.40;99.90
3644;DHT22;1838;50.742;7.158;2023-01-19T10:47:30;3.50;99.90
3644;DHT22;1838;50.742;7.158;2023-01-19T10:49:58;3.50;99.90
3644;DHT22;1838;50.742;7.158;2023-01-19T10:52:35;3.60;99.90
3644;DHT22;1838;50.742;7.158;2023-01-19T10:55:03;3.60;99.90
3644;DHT22;1838;50.742;7.158;2023-01-19T10:57:47;3.60;99.90
3644;DHT22;1838;50.742;7.158;2023-01-19T11:02:54;3.70;99.90
3644;DHT22;1838;50.742;7.158;2023-01-19T11:05:25;3.70;99.90
3644;DHT22;1838;50.742;7.158;2023-01-19T11:07:51;3.60;99.90
3644;DHT22;1838;50.742;7.158;2023-01-19T11:10:21;3.70;99.90
3644;DHT22;1838;50.742;7.158;2023-01-19T11:12:58;3.70;99.90
3644;DHT22;1838;50.742;7.158;2023-01-19T11:18:06;3.70;99.90
3644;DHT22;1838;50.742;7.158;2023-01-19T11:20:46;3.70;99.90
3644;DHT22;1838;50.742;7.158;2023-01-19T11:25:38;3.80;99.90
3644;DHT22;1838;50.742;7.158;2023-01-19T11:28:04;3.90;99.90
3644;DHT22;1838;50.742;7.158;2023-01-19T11:30:30;4.00;99.90
3644;DHT22;1838;50.742;7.158;2023-01-19T11:32:56;4.10;99.90
3644;DHT22;1838;50.742;7.158;2023-01-19T11:35:38;4.10;99.90
3644;DHT22;1838;50.742;7.158;2023-01-19T11:38:19;4.20;99.90
3644;DHT22;1838;50.742;7.158;2023-01-19T11:40:57;4.20;99.90
3644;DHT22;1838;50.742;7.158;2023-01-19T11:43:27;4.30;99.90
3644;DHT22;1838;50.742;7.158;2023-01-19T11:45:54;4.30;99.90
3644;DHT22;1838;50.742;7.158;2023-01-19T11:50:59;4.40;99.90
3644;DHT22;1838;50.742;7.158;2023-01-19T11:53:29;4.50;99.90
3644;DHT22;1838;50.742;7.158;2023-01-19T11:56:25;4.50;99.90
3644;DHT22;1838;50.742;7.158;2023-01-19T11:58:53;4.60;99.90
3644;DHT22;1838;50.742;7.158;2023-01-19T12:01:26;4.70;99.90
3644;DHT22;1838;50.742;7.158;2023-01-19T12:04:05;4.70;99.90
3644;DHT22;1838;50.742;7.158;2023-01-19T12:06:37;4.70;99.90
3644;DHT22;1838;50.742;7.158;2023-01-19T12:09:17;4.80;99.90
3644;DHT22;1838;50.742;7.158;2023-01-19T12:11:47;4.90;99.90
3644;DHT22;1838;50.742;7.158;2023-01-19T12:14:20;4.90;99.90
3644;DHT22;1838;50.742;7.158;2023-01-19T12:16:50;5.00;99.90
3644;DHT22;1838;50.742;7.158;2023-01-19T12:19:21;5.10;99.90
3644;DHT22;1838;50.742;7.158;2023-01-19T12:21:49;5.10;99.90
3644;DHT22;1838;50.742;7.158;2023-01-19T12:24:17;5.10;99.90
3644;DHT22;1838;50.742;7.158;2023-01-19T12:26:58;5.20;99.90
3644;DHT22;1838;50.742;7.158;2023-01-19T12:29:27;5.20;99.90
3644;DHT22;1838;50.742;7.158;2023-01-19T12:34:46;5.30;99.90
3644;DHT22;1838;50.742;7.158;2023-01-19T12:40:23;5.40;99.90
3644;DHT22;1838;50.742;7.158;2023-01-19T12:43:03;5.50;99.90
3644;DHT22;1838;50.742;7.158;2023-01-19T12:45:34;5.50;99.90
3644;DHT22;1838;50.742;7.158;2023-01-19T12:48:00;5.60;99.90
3644;DHT22;1838;50.742;7.158;2023-01-19T12:50:32;5.60;99.90
3644;DHT22;1838;50.742;7.158;2023-01-19T12:52:59;5.60;99.90
3644;DHT22;1838;50.742;7.158;2023-01-19T12:58:15;5.70;99.90
3644;DHT22;1838;50.742;7.158;2023-01-19T13:00:49;5.70;99.90
3644;DHT22;1838;50.742;7.158;2023-01-19T13:14:32;5.80;99.90
3644;DHT22;1838;50.742;7.158;2023-01-19T13:19:16;5.90;99.90
3644;DHT22;1838;50.742;7.158;2023-01-19T13:21:47;5.90;99.90
3644;DHT22;1838;50.742;7.158;2023-01-19T13:24:14;5.90;99.90
3644;DHT22;1838;50.742;7.158;2023-01-19T13:29:28;5.80;99.90
3644;DHT22;1838;50.742;7.158;2023-01-19T13:31:56;5.80;99.90
3644;DHT22;1838;50.742;7.158;2023-01-19T13:34:35;5.80;99.90
3644;DHT22;1838;50.742;7.158;2023-01-19T13:37:03;5.70;99.90
3644;DHT22;1838;50.742;7.158;2023-01-19T13:39:39;5.60;99.90
3644;DHT22;1838;50.742;7.158;2023-01-19T13:44:51;5.50;99.90
3644;DHT22;1838;50.742;7.158;2023-01-19T13:47:22;5.50;99.90
3644;DHT22;1838;50.742;7.158;2023-01-19T13:49:55;5.40;99.90
3644;DHT22;1838;50.742;7.158;2023-01-19T13:52:25;5.40;99.90
3644;DHT22;1838;50.742;7.158;2023-01-19T13:54:56;5.50;99.90
3644;DHT22;1838;50.742;7.158;2023-01-19T13:57:42;5.50;99.90
3644;DHT22;1838;50.742;7.158;2023-01-19T14:08:03;5.60;99.90
3644;DHT22;1838;50.742;7.158;2023-01-19T14:10:29;5.70;99.90
3644;DHT22;1838;50.742;7.158;2023-01-19T14:13:00;5.70;99.90
3644;DHT22;1838;50.742;7.158;2023-01-19T14:15:27;5.80;99.90
3644;DHT22;1838;50.742;7.158;2023-01-19T14:20:50;5.90;99.90
3644;DHT22;1838;50.742;7.158;2023-01-19T14:23:36;6.00;99.90
3644;DHT22;1838;50.742;7.158;2023-01-19T14:26:02;6.10;99.90
3644;DHT22;1838;50.742;7.158;2023-01-19T14:31:01;6.20;99.90
3644;DHT22;1838;50.742;7.158;2023-01-19T14:33:41;6.30;99.90
3644;DHT22;1838;50.742;7.158;2023-01-19T14:38:59;6.40;99.90
3644;DHT22;1838;50.742;7.158;2023-01-19T14:44:09;6.40;99.90
3644;DHT22;1838;50.742;7.158;2023-01-19T14:46:36;6.40;99.90
3644;DHT22;1838;50.742;7.158;2023-01-19T14:49:04;6.40;99.90
3644;DHT22;1838;50.742;7.158;2023-01-19T14:51:30;6.30;99.90
3644;DHT22;1838;50.742;7.158;2023-01-19T14:53:58;6.30;99.90
3644;DHT22;1838;50.742;7.158;2023-01-19T14:56:30;6.30;99.90
3644;DHT22;1838;50.742;7.158;2023-01-19T14:58:58;6.20;99.90
3644;DHT22;1838;50.742;7.158;2023-01-19T15:01:26;6.30;99.90
3644;DHT22;1838;50.742;7.158;2023-01-19T15:03:53;6.30;99.90
3644;DHT22;1838;50.742;7.158;2023-01-19T15:06:22;6.30;99.90
3644;DHT22;1838;50.742;7.158;2023-01-19T15:08:48;6.30;99.90
3644;DHT22;1838;50.742;7.158;2023-01-19T15:11:22;6.40;99.90
3644;DHT22;1838;50.742;7.158;2023-01-19T15:13:49;6.40;99.90
3644;DHT22;1838;50.742;7.158;2023-01-19T15:16:15;6.40;99.90
3644;DHT22;1838;50.742;7.158;2023-01-19T15:18:41;6.40;99.90
3644;DHT22;1838;50.742;7.158;2023-01-19T15:21:14;6.40;99.90
3644;DHT22;1838;50.742;7.158;2023-01-19T15:23:40;6.40;99.90
3644;DHT22;1838;50.742;7.158;2023-01-19T15:26:09;6.30;99.90
3644;DHT22;1838;50.742;7.158;2023-01-19T15:28:37;6.30;99.90
3644;DHT22;1838;50.742;7.158;2023-01-19T15:31:03;6.40;99.90
3644;DHT22;1838;50.742;7.158;2023-01-19T15:33:29;6.30;99.90
3644;DHT22;1838;50.742;7.158;2023-01-19T15:35:58;6.30;99.90
3644;DHT22;1838;50.742;7.158;2023-01-19T15:38:24;6.40;99.90
3644;DHT22;1838;50.742;7.158;2023-01-19T15:40:50;6.40;99.90
3644;DHT22;1838;50.742;7.158;2023-01-19T15:43:16;6.40;99.90
3644;DHT22;1838;50.742;7.158;2023-01-19T15:48:13;6.30;99.90
3644;DHT22;1838;50.742;7.158;2023-01-19T15:50:41;6.40;99.90
3644;DHT22;1838;50.742;7.158;2023-01-19T15:53:09;6.30;99.90
3644;DHT22;1838;50.742;7.158;2023-01-19T15:55:36;6.30;99.90
3644;DHT22;1838;50.742;7.158;2023-01-19T15:58:02;6.30;99.90
3644;DHT22;1838;50.742;7.158;2023-01-19T16:00:29;6.30;99.90
3644;DHT22;1838;50.742;7.158;2023-01-19T16:02:55;6.30;99.90
3644;DHT22;1838;50.742;7.158;2023-01-19T16:05:21;6.20;99.90
3644;DHT22;1838;50.742;7.158;2023-01-19T16:07:46;6.20;99.90
3644;DHT22;1838;50.742;7.158;2023-01-19T16:10:12;6.20;99.90
3644;DHT22;1838;50.742;7.158;2023-01-19T16:12:38;6.20;99.90
3644;DHT22;1838;50.742;7.158;2023-01-19T16:15:04;6.20;99.90
3644;DHT22;1838;50.742;7.158;2023-01-19T16:17:30;6.20;99.90
3644;DHT22;1838;50.742;7.158;2023-01-19T16:19:55;6.10;99.90
3644;DHT22;1838;50.742;7.158;2023-01-19T16:22:21;6.10;99.90
3644;DHT22;1838;50.742;7.158;2023-01-19T16:24:46;6.10;99.90
3644;DHT22;1838;50.742;7.158;2023-01-19T16:27:12;6.00;99.90
3644;DHT22;1838;50.742;7.158;2023-01-19T16:29:37;6.00;99.90
3644;DHT22;1838;50.742;7.158;2023-01-19T16:32:03;6.00;99.90
3644;DHT22;1838;50.742;7.158;2023-01-19T16:34:29;5.90;99.90
3644;DHT22;1838;50.742;7.158;2023-01-19T16:36:54;5.90;99.90
3644;DHT22;1838;50.742;7.158;2023-01-19T16:39:20;5.80;99.90
3644;DHT22;1838;50.742;7.158;2023-01-19T16:41:46;5.80;99.90
3644;DHT22;1838;50.742;7.158;2023-01-19T16:44:13;5.70;99.90
3644;DHT22;1838;50.742;7.158;2023-01-19T16:46:41;5.70;99.90
3644;DHT22;1838;50.742;7.158;2023-01-19T16:49:23;5.50;99.90
3644;DHT22;1838;50.742;7.158;2023-01-19T16:51:50;5.50;99.90
3644;DHT22;1838;50.742;7.158;2023-01-19T16:54:19;5.50;99.90
3644;DHT22;1838;50.742;7.158;2023-01-19T16:56:46;5.40;99.90
3644;DHT22;1838;50.742;7.158;2023-01-19T16:59:13;5.30;99.90
3644;DHT22;1838;50.742;7.158;2023-01-19T17:01:39;5.20;99.90
3644;DHT22;1838;50.742;7.158;2023-01-19T17:04:05;5.20;99.90
3644;DHT22;1838;50.742;7.158;2023-01-19T17:06:31;5.10;99.90
3644;DHT22;1838;50.742;7.158;2023-01-19T17:08:57;5.10;99.90
3644;DHT22;1838;50.742;7.158;2023-01-19T17:11:25;5.10;99.90
3644;DHT22;1838;50.742;7.158;2023-01-19T17:13:59;5.00;99.90
3644;DHT22;1838;50.742;7.158;2023-01-19T17:16:26;5.00;99.90
3644;DHT22;1838;50.742;7.158;2023-01-19T17:18:52;5.00;99.90
3644;DHT22;1838;50.742;7.158;2023-01-19T17:21:18;5.00;99.90
3644;DHT22;1838;50.742;7.158;2023-01-19T17:23:46;4.80;99.90
3644;DHT22;1838;50.742;7.158;2023-01-19T17:26:13;4.70;99.90
3644;DHT22;1838;50.742;7.158;2023-01-19T17:28:39;4.70;99.90
3644;DHT22;1838;50.742;7.158;2023-01-19T17:31:14;4.60;99.90
3644;DHT22;1838;50.742;7.158;2023-01-19T17:33:43;4.60;99.90
3644;DHT22;1838;50.742;7.158;2023-01-19T17:36:11;4.60;99.90
3644;DHT22;1838;50.742;7.158;2023-01-19T17:38:38;4.60;99.90
3644;DHT22;1838;50.742;7.158;2023-01-19T17:41:17;4.60;99.90
3644;DHT22;1838;50.742;7.158;2023-01-19T17:43:43;4.50;99.90
3644;DHT22;1838;50.742;7.158;2023-01-19T17:46:28;4.50;99.90
3644;DHT22;1838;50.742;7.158;2023-01-19T17:51:20;4.50;99.90